Time;durP1;ratioP1;P1;durP2;ratioP2;P2;SDS_P1;SDS_P2;PMS_P1;PMS_P2;Temp;Humidity;BMP_temperature;BMP_pressure;BME280_temperature;BME280_humidity;BME280_pressure;Samples;Min_cycle;Max_cycle;Signal;HPM_P1;HPM_P2
2023/08/23 00:00:14;;;;;;;17.48;15.73;;;;;;;22.30;74.87;93175.47;5073207;28;20298;-74
2023/08/23 00:02:40;;;;;;;17.10;15.50;;;;;;;22.19;74.78;93171.72;5072143;28;20231;-74
2023/08/23 00:05:06;;;;;;;16.73;15.18;;;;;;;22.30;74.86;93178.13;5072758;28;20224;-74
2023/08/23 00:07:31;;;;;;;16.88;15.40;;;;;;;22.26;75.40;93174.59;5072292;28;20239;-74
2023/08/23 00:09:56;;;;;;;16.95;15.52;;;;;;;22.30;75.00;93175.47;5072642;28;20180;-74
2023/08/23 00:12:22;;;;;;;18.08;16.20;;;;;;;22.28;75.11;93172.38;5071160;28;20188;-75
2023/08/23 00:14:47;;;;;;;16.80;15.13;;;;;;;22.15;75.22;93158.31;5071783;28;20190;-74
2023/08/23 00:17:12;;;;;;;17.85;16.10;;;;;;;22.13;76.08;93173.09;5072009;28;20219;-74
2023/08/23 00:19:38;;;;;;;17.80;16.02;;;;;;;22.04;76.65;93169.75;5072209;28;20263;-74
2023/08/23 00:22:03;;;;;;;18.55;16.60;;;;;;;21.95;77.16;93180.53;5072636;28;20179;-75
2023/08/23 00:24:29;;;;;;;18.73;17.00;;;;;;;21.99;77.08;93177.97;5071578;28;20251;-75
2023/08/23 00:26:55;;;;;;;19.35;17.38;;;;;;;21.88;78.20;93171.56;5072344;28;20191;-75
2023/08/23 00:29:20;;;;;;;19.13;17.25;;;;;;;21.88;78.60;93171.56;5071675;28;20280;-74
2023/08/23 00:31:46;;;;;;;19.02;17.13;;;;;;;21.90;78.95;93172.78;5072218;28;20181;-74
2023/08/23 00:34:11;;;;;;;19.33;17.10;;;;;;;21.85;79.38;93175.66;5070647;28;20207;-74
2023/08/23 00:36:36;;;;;;;18.58;16.83;;;;;;;21.80;79.05;93167.13;5071918;28;20183;-75
2023/08/23 00:39:02;;;;;;;19.65;18.05;;;;;;;21.70;80.08;93167.53;5071522;28;20217;-75
2023/08/23 00:41:27;;;;;;;20.17;16.05;;;;;;;21.81;79.64;93174.00;5072179;28;20211;-74
2023/08/23 00:43:52;;;;;;;18.77;16.90;;;;;;;21.77;79.30;93170.47;5071326;28;20234;-74
2023/08/23 00:46:19;;;;;;;18.13;16.50;;;;;;;21.68;78.98;93159.16;5072323;28;20190;-74
2023/08/23 00:48:46;;;;;;;19.05;17.02;;;;;;;21.72;78.47;93171.44;5070471;28;20236;-74
2023/08/23 00:51:13;;;;;;;18.60;17.05;;;;;;;21.74;79.38;93171.09;5071983;28;20203;-74
2023/08/23 00:53:39;;;;;;;16.95;15.32;;;;;;;21.54;80.86;93179.97;5071456;28;20252;-74
2023/08/23 00:56:05;;;;;;;19.02;17.08;;;;;;;21.46;80.78;93159.59;5071814;28;20212;-74
2023/08/23 00:58:32;;;;;;;17.88;16.08;;;;;;;21.61;80.71;93164.22;5071271;28;20245;-74
2023/08/23 01:00:57;;;;;;;16.85;15.20;;;;;;;21.58;80.47;93170.19;5072128;28;20193;-75
2023/08/23 01:03:23;;;;;;;17.60;15.82;;;;;;;21.38;80.68;93163.91;5077542;28;20243;-74
2023/08/23 01:06:26;;;;;;;17.50;15.88;;;;;;;21.45;81.61;93172.06;5071146;28;20316;-74
2023/08/23 01:09:18;;;;;;;17.67;16.08;;;;;;;21.50;80.19;93169.22;5049266;28;20272;-74
2023/08/23 01:12:27;;;;;;;18.55;16.83;;;;;;;21.40;80.39;93168.88;5040546;28;20256;-75
2023/08/23 01:14:58;;;;;;;18.20;16.35;;;;;;;21.40;80.75;93168.88;5051567;28;20214;-75
2023/08/23 01:17:24;;;;;;;24.30;16.77;;;;;;;21.29;80.24;93171.16;5071296;28;20214;-74
2023/08/23 01:19:51;;;;;;;18.05;16.20;;;;;;;21.40;79.62;93176.84;5080436;28;20179;-74
2023/08/23 01:22:21;;;;;;;19.27;16.42;;;;;;;21.21;80.29;93158.00;5070452;28;20178;-74
2023/08/23 01:24:48;;;;;;;16.92;15.43;;;;;;;21.14;80.53;93171.03;5070524;28;20245;-74
2023/08/23 01:27:14;;;;;;;18.73;17.23;;;;;;;21.19;80.01;93173.47;5071228;28;20189;-75
2023/08/23 01:29:39;;;;;;;18.08;16.15;;;;;;;21.23;79.71;93171.72;5071579;28;20209;-74
2023/08/23 01:32:31;;;;;;;18.45;16.70;;;;;;;21.10;80.01;93170.94;5071279;28;20205;-75
2023/08/23 01:35:02;;;;;;;17.35;15.65;;;;;;;21.24;80.07;93160.00;5062572;28;20209;-74
2023/08/23 01:37:30;;;;;;;18.20;16.67;;;;;;;21.25;80.47;93166.84;5070838;28;20201;-74
2023/08/23 01:40:00;;;;;;;18.20;16.48;;;;;;;21.13;81.79;93150.91;5071256;28;20213;-74
2023/08/23 01:42:26;;;;;;;18.52;16.58;;;;;;;21.09;81.95;93163.31;5070007;28;20190;-74
2023/08/23 01:44:51;;;;;;;18.85;16.92;;;;;;;21.01;82.25;93153.53;5071037;28;20236;-74
2023/08/23 01:47:17;;;;;;;19.00;17.20;;;;;;;21.11;82.95;93161.84;5070685;28;20202;-74
2023/08/23 01:49:43;;;;;;;19.08;17.10;;;;;;;21.03;82.38;93146.03;5070326;28;20234;-74
2023/08/23 01:52:08;;;;;;;17.63;15.13;;;;;;;21.10;81.35;93159.53;5071506;28;20190;-75
2023/08/23 01:54:34;;;;;;;18.73;16.77;;;;;;;21.10;81.20;93159.53;5070257;28;20221;-75
2023/08/23 01:56:59;;;;;;;18.40;16.83;;;;;;;21.03;81.88;93160.06;5069920;28;20178;-74
2023/08/23 01:59:24;;;;;;;17.10;15.60;;;;;;;21.00;81.04;93154.63;5069408;28;20238;-74
2023/08/23 02:01:50;;;;;;;17.85;16.25;;;;;;;21.14;80.88;93165.72;5069488;28;20204;-74
2023/08/23 02:04:17;;;;;;;17.42;15.73;;;;;;;21.07;81.57;93160.97;5052573;28;20231;-74
2023/08/23 02:06:43;;;;;;;17.02;15.63;;;;;;;21.03;82.27;93162.72;5050585;28;20221;-74
2023/08/23 02:09:09;;;;;;;17.35;15.75;;;;;;;21.09;81.28;93165.97;5051204;28;20223;-74
2023/08/23 02:11:36;;;;;;;17.95;16.20;;;;;;;21.05;82.08;93160.53;5049046;28;20191;-74
2023/08/23 02:14:02;;;;;;;18.15;16.48;;;;;;;21.06;81.79;93167.38;5037955;28;20223;-75
2023/08/23 02:16:28;;;;;;;17.75;15.95;;;;;;;21.04;81.65;93166.94;5050315;28;20218;-74
2023/08/23 02:18:54;;;;;;;17.55;16.05;;;;;;;20.88;83.46;93163.31;5049566;28;20232;-74
2023/08/23 02:21:19;;;;;;;17.98;16.25;;;;;;;21.00;82.36;93166.03;5049994;28;20222;-75
2023/08/23 02:23:44;;;;;;;18.10;16.45;;;;;;;21.00;82.36;93171.34;5038240;28;20307;-74
2023/08/23 02:26:10;;;;;;;18.33;16.55;;;;;;;20.90;81.93;93161.13;5050044;28;20202;-74
2023/08/23 02:28:35;;;;;;;18.08;16.15;;;;;;;20.88;81.58;93163.31;5061800;28;20288;-74
2023/08/23 02:31:02;;;;;;;17.90;16.27;;;;;;;20.95;81.64;93162.78;5070215;28;20193;-74
2023/08/23 02:33:28;;;;;;;18.70;16.90;;;;;;;20.90;82.63;93165.66;5058539;28;20238;-74
2023/08/23 02:35:53;;;;;;;18.35;16.65;;;;;;;20.88;82.21;93163.31;5048713;28;20225;-75
2023/08/23 02:38:18;;;;;;;26.27;17.75;;;;;;;20.71;83.78;93160.84;5049588;28;20238;-74
2023/08/23 02:40:44;;;;;;;19.23;17.15;;;;;;;20.73;83.78;93160.50;5048654;28;20191;-74
2023/08/23 02:43:09;;;;;;;18.48;16.58;;;;;;;20.80;83.39;93156.22;5066396;28;20277;-74
2023/08/23 02:45:41;;;;;;;18.27;16.15;;;;;;;20.84;82.01;93157.09;5089594;28;20227;-74
2023/08/23 02:48:09;;;;;;;17.13;15.43;;;;;;;20.86;82.04;93138.22;5069837;28;20223;-74
2023/08/23 02:50:34;;;;;;;17.25;15.57;;;;;;;20.70;82.55;93138.06;5069303;28;20883;-74
2023/08/23 02:53:00;;;;;;;18.77;16.83;;;;;;;20.56;82.66;93151.59;5069740;28;20282;-74
2023/08/23 02:55:25;;;;;;;19.05;17.15;;;;;;;20.63;83.60;93154.53;5069426;28;20223;-74
2023/08/23 02:57:50;;;;;;;17.48;15.77;;;;;;;20.67;82.90;93146.66;5069349;28;20213;-74
2023/08/23 03:00:16;;;;;;;19.60;17.05;;;;;;;20.66;83.59;93155.72;5069585;28;20213;-74
2023/08/23 03:02:41;;;;;;;17.83;16.02;;;;;;;20.59;83.04;93153.59;5069149;28;20904;-74
2023/08/23 03:05:07;;;;;;;18.95;15.23;;;;;;;20.50;83.36;93155.56;5069176;28;20269;-74
2023/08/23 03:07:33;;;;;;;17.77;16.05;;;;;;;20.50;84.06;93142.31;5072328;28;20226;-74
2023/08/23 03:09:58;;;;;;;19.05;17.15;;;;;;;20.53;83.40;93152.25;5074043;28;20195;-74
2023/08/23 03:12:23;;;;;;;19.35;17.40;;;;;;;20.55;83.95;93152.72;5076087;28;20225;-75
2023/08/23 03:14:49;;;;;;;18.10;16.25;;;;;;;20.48;84.54;93144.50;5075106;28;20171;-74
2023/08/23 03:17:14;;;;;;;17.90;16.27;;;;;;;20.49;84.72;93156.69;5071897;28;20202;-74
2023/08/23 03:19:39;;;;;;;20.70;17.50;;;;;;;20.51;84.10;93154.47;5068819;28;20173;-74
2023/08/23 03:22:05;;;;;;;17.95;16.33;;;;;;;20.51;84.49;93162.41;5069473;28;20174;-74
2023/08/23 03:24:30;;;;;;;18.55;16.33;;;;;;;20.40;84.54;93158.63;5068825;28;20252;-74
2023/08/23 03:26:55;;;;;;;17.42;15.82;;;;;;;20.36;84.91;93148.97;5067216;28;20190;-74
2023/08/23 03:29:21;;;;;;;18.85;17.15;;;;;;;20.36;85.94;93152.41;5067522;28;20241;-75
2023/08/23 03:31:46;;;;;;;18.65;16.65;;;;;;;20.41;85.31;93154.88;5068514;28;20180;-75
2023/08/23 03:34:11;;;;;;;18.05;16.20;;;;;;;20.45;85.28;93158.41;5076190;28;20237;-76
2023/08/23 03:36:37;;;;;;;16.85;15.25;;;;;;;20.43;84.94;93160.63;5072840;28;20178;-74
2023/08/23 03:39:03;;;;;;;18.83;16.98;;;;;;;20.39;84.39;93149.09;5066005;28;20246;-74
2023/08/23 03:41:28;;;;;;;18.85;16.58;;;;;;;20.22;84.80;93136.00;5048022;28;20186;-75
2023/08/23 03:43:53;;;;;;;20.98;17.45;;;;;;;20.27;86.18;93153.56;5048177;28;20267;-74
2023/08/23 03:46:23;;;;;;;21.35;18.27;;;;;;;20.17;87.98;93141.47;5046582;28;20220;-74
2023/08/23 03:48:49;;;;;;;18.83;16.92;;;;;;;20.27;87.51;93153.56;5047997;28;20218;-74
2023/08/23 03:51:14;;;;;;;18.70;16.83;;;;;;;20.31;87.67;93147.31;5047398;28;20193;-75
2023/08/23 03:53:39;;;;;;;19.15;17.25;;;;;;;20.32;88.46;93156.81;5060795;28;20237;-74
2023/08/23 03:56:06;;;;;;;23.17;18.27;;;;;;;20.47;86.98;93158.88;5067644;28;20728;-74
2023/08/23 03:58:31;;;;;;;20.23;18.27;;;;;;;20.41;87.87;93146.91;5067126;28;20286;-75
2023/08/23 04:00:57;;;;;;;20.25;18.40;;;;;;;20.52;86.87;93142.75;5067011;28;20214;-74
2023/08/23 04:03:22;;;;;;;21.50;18.27;;;;;;;20.48;88.37;93151.69;5057428;28;20236;-75
2023/08/23 04:05:48;;;;;;;23.13;17.40;;;;;;;20.42;86.49;93139.75;5067908;28;20215;-75
2023/08/23 04:08:13;;;;;;;20.05;18.08;;;;;;;20.63;87.18;93156.38;5067733;28;20228;-75
2023/08/23 04:10:38;;;;;;;20.35;18.35;;;;;;;20.56;86.94;93148.94;5066906;28;20208;-74
2023/08/23 04:13:04;;;;;;;24.77;17.67;;;;;;;20.66;86.34;93156.53;5059592;28;20244;-76
2023/08/23 04:15:29;;;;;;;19.45;17.42;;;;;;;20.80;87.01;93152.78;5047465;28;20205;-78
2023/08/23 04:17:55;;;;;;;20.05;18.15;;;;;;;20.83;86.21;93160.88;5046091;28;20236;-79
2023/08/23 04:20:20;;;;;;;21.83;19.15;;;;;;;20.88;84.96;93149.28;5047928;28;20188;-78
2023/08/23 04:22:45;;;;;;;24.70;18.23;;;;;;;21.02;85.67;93155.88;5047155;28;20237;-77
2023/08/23 04:25:11;;;;;;;22.63;18.17;;;;;;;21.05;85.72;93159.75;5048064;28;20229;-70
2023/08/23 04:27:36;;;;;;;21.83;19.23;;;;;;;21.17;85.09;93155.22;5051018;28;20232;-69
2023/08/23 04:30:06;;;;;;;19.10;17.38;;;;;;;21.18;85.52;93156.00;5051626;28;20192;-70
2023/08/23 04:32:31;;;;;;;20.33;18.42;;;;;;;21.29;83.92;93165.09;5045380;28;20224;-70
2023/08/23 04:34:57;;;;;;;21.23;17.63;;;;;;;21.30;83.77;93159.47;5071520;28;20220;-72
2023/08/23 04:37:22;;;;;;;18.58;16.70;;;;;;;21.22;84.01;93125.00;5070533;28;20185;-68
2023/08/23 04:39:47;;;;;;;22.15;17.50;;;;;;;21.13;86.06;93113.72;5069840;28;20197;-68
2023/08/23 04:42:13;;;;;;;20.17;17.88;;;;;;;21.30;85.68;93156.81;5073503;28;20185;-71
2023/08/23 04:44:38;;;;;;;21.08;19.00;;;;;;;21.15;85.83;93146.84;5070621;28;20214;-71
2023/08/23 04:47:04;;;;;;;21.23;19.15;;;;;;;21.37;85.06;93150.94;5061947;28;20202;-70
2023/08/23 04:49:29;;;;;;;26.02;19.85;;;;;;;21.56;84.02;93167.09;5064989;28;20206;-70
2023/08/23 04:51:54;;;;;;;21.20;18.80;;;;;;;21.80;81.34;93151.97;5067465;28;20194;-71
2023/08/23 04:54:20;;;;;;;21.58;19.38;;;;;;;21.79;81.83;93170.91;5070995;28;20225;-72
2023/08/23 04:56:46;;;;;;;22.23;19.85;;;;;;;21.76;82.45;93166.25;5070257;28;20207;-71
2023/08/23 04:59:11;;;;;;;24.65;19.52;;;;;;;21.78;82.54;93170.13;5070314;28;20218;-71
2023/08/23 05:01:36;;;;;;;25.90;20.48;;;;;;;21.60;83.56;93160.03;5070908;28;21074;-70
2023/08/23 05:04:02;;;;;;;23.27;20.27;;;;;;;21.64;83.69;93164.34;5069897;28;20253;-69
2023/08/23 05:06:27;;;;;;;24.38;21.63;;;;;;;21.91;82.52;93178.88;5070850;28;20215;-69
2023/08/23 05:08:53;;;;;;;21.05;18.83;;;;;;;21.95;83.20;93179.75;5070493;28;20243;-71
2023/08/23 05:11:18;;;;;;;22.77;20.23;;;;;;;22.08;82.94;93173.31;5070962;28;20202;-70
2023/08/23 05:13:43;;;;;;;24.55;22.05;;;;;;;21.98;82.46;93173.75;5070258;28;20250;-67
2023/08/23 05:16:09;;;;;;;23.08;20.67;;;;;;;22.09;81.45;93167.66;5069949;28;20219;-68
2023/08/23 05:18:34;;;;;;;27.00;21.48;;;;;;;22.16;81.44;93161.78;5070202;28;20278;-68
2023/08/23 05:20:59;;;;;;;24.55;22.00;;;;;;;22.01;82.64;93165.09;5071080;28;20191;-67
2023/08/23 05:23:25;;;;;;;24.15;21.65;;;;;;;21.94;82.91;93151.59;5070963;28;20235;-69
2023/08/23 05:25:54;;;;;;;24.17;21.48;;;;;;;22.25;82.06;93170.38;5070407;28;20281;-72
2023/08/23 05:28:20;;;;;;;29.55;22.02;;;;;;;22.45;80.56;93164.13;5064672;23;20233;-74
2023/08/23 05:30:46;;;;;;;24.95;22.05;;;;;;;22.38;80.98;93174.56;5050592;28;20231;-71
2023/08/23 05:36:15;;;;;;;27.92;23.02;;;;;;;22.69;78.91;93173.94;5056439;28;20245;-75
2023/08/23 05:38:40;;;;;;;26.98;22.90;;;;;;;22.73;79.20;93178.25;5061538;28;20337;-78
2023/08/23 05:41:05;;;;;;;26.63;23.80;;;;;;;22.80;78.99;93177.66;5064302;28;20189;-78
2023/08/23 05:43:31;;;;;;;25.17;22.55;;;;;;;22.33;81.15;93166.03;5072035;28;20227;-81
2023/08/23 05:45:57;;;;;;;26.52;23.20;;;;;;;22.60;79.91;93168.75;5069034;28;21119;-84
2023/08/23 05:48:22;;;;;;;24.48;21.85;;;;;;;22.88;78.85;93179.41;5064134;28;20230;-85
2023/08/23 05:50:48;;;;;;;25.65;23.13;;;;;;;22.84;77.65;93179.31;5059559;28;20218;-83
2023/08/23 05:53:19;;;;;;;23.92;21.42;;;;;;;22.53;79.99;93171.22;5064609;28;20250;-84
2023/08/23 05:55:48;;;;;;;25.63;22.98;;;;;;;22.65;79.01;93171.16;5064109;28;20192;-84
2023/08/23 05:58:15;;;;;;;29.48;20.65;;;;;;;22.84;78.34;93171.31;5070363;28;20224;-84
2023/08/23 06:00:41;;;;;;;27.02;20.25;;;;;;;23.86;74.99;93181.13;5083297;28;20199;-84
2023/08/23 06:03:07;;;;;;;23.35;20.73;;;;;;;24.85;69.98;93179.50;5070247;28;20219;-84
2023/08/23 06:05:32;;;;;;;22.27;19.90;;;;;;;26.01;64.87;93144.84;5070553;28;20215;-84
2023/08/23 06:07:58;;;;;;;22.90;18.73;;;;;;;29.47;54.05;93190.41;5074916;28;20281;-83
2023/08/23 06:10:23;;;;;;;25.88;18.65;;;;;;;32.86;43.99;93204.91;5070278;28;20869;-84
2023/08/23 06:12:48;;;;;;;21.15;19.00;;;;;;;33.18;41.97;93208.81;5069363;28;20722;-83
2023/08/23 06:15:14;;;;;;;20.00;18.00;;;;;;;30.40;48.39;93207.03;5070459;28;20189;-84
2023/08/23 06:17:39;;;;;;;25.70;19.83;;;;;;;26.91;59.44;93183.97;5069763;28;20259;-83
2023/08/23 06:20:06;;;;;;;23.73;21.13;;;;;;;25.95;63.72;93191.75;5069747;28;20193;-84
2023/08/23 06:22:31;;;;;;;26.48;20.85;;;;;;;25.70;64.48;93192.53;5069130;28;20220;-84
2023/08/23 06:24:57;;;;;;;21.00;19.00;;;;;;;25.14;65.44;93152.16;5081548;28;20221;-85
2023/08/23 06:27:22;;;;;;;22.40;20.02;;;;;;;24.88;68.03;93168.88;5069855;28;20216;-83
2023/08/23 06:29:47;;;;;;;24.80;19.98;;;;;;;25.32;66.03;93181.88;5068514;28;20197;-83
2023/08/23 06:32:13;;;;;;;27.08;20.65;;;;;;;25.63;65.15;93185.16;5069836;28;20222;-79
2023/08/23 06:34:39;;;;;;;24.95;21.15;;;;;;;25.53;65.45;93166.22;5068994;28;20224;-84
2023/08/23 06:37:04;;;;;;;21.85;19.27;;;;;;;25.01;68.25;93178.28;5074707;28;20184;-84
2023/08/23 06:39:29;;;;;;;21.58;19.35;;;;;;;25.11;67.53;93183.06;5069524;28;20303;-84
2023/08/23 06:41:55;;;;;;;22.65;18.73;;;;;;;25.60;65.88;93188.53;5070099;28;20185;-84
2023/08/23 06:44:20;;;;;;;23.48;18.85;;;;;;;25.63;66.14;93177.13;5072924;28;20224;-84
2023/08/23 06:46:46;;;;;;;27.08;18.60;;;;;;;25.97;64.88;93180.69;5072022;28;20189;-83
2023/08/23 06:49:11;;;;;;;21.10;18.98;;;;;;;26.04;63.87;93183.53;5068653;28;20232;-83
2023/08/23 06:51:37;;;;;;;23.42;17.42;;;;;;;26.19;63.90;93183.38;5070276;28;20240;-83
2023/08/23 06:54:02;;;;;;;23.60;17.13;;;;;;;26.25;63.23;93184.59;5056071;28;20220;-82
2023/08/23 06:56:29;;;;;;;22.38;18.02;;;;;;;25.81;65.28;93183.50;5069968;28;20189;-83
2023/08/23 06:58:55;;;;;;;20.08;17.35;;;;;;;26.53;62.82;93186.88;5065270;28;20229;-82
2023/08/23 07:01:21;;;;;;;21.00;18.70;;;;;;;26.69;61.63;93176.81;5054467;28;20197;-83
2023/08/23 07:03:47;;;;;;;20.00;17.70;;;;;;;26.76;62.75;93190.28;5054067;28;20963;-82
2023/08/23 07:06:13;;;;;;;19.75;17.90;;;;;;;26.54;62.41;93194.56;5069794;28;20217;-83
2023/08/23 07:08:43;;;;;;;20.48;18.40;;;;;;;26.51;62.86;93194.50;5071936;28;20254;-82
2023/08/23 07:11:09;;;;;;;17.67;16.00;;;;;;;26.62;63.05;93190.84;5081257;28;20184;-81
2023/08/23 07:13:36;;;;;;;20.42;18.23;;;;;;;26.44;63.34;93191.75;5065205;28;20845;-83
2023/08/23 07:16:03;;;;;;;19.10;17.10;;;;;;;26.77;63.09;93191.84;5066303;28;20202;-85
2023/08/23 07:18:29;;;;;;;19.85;16.75;;;;;;;26.73;62.65;93191.78;5082585;28;20237;-79
2023/08/23 07:20:54;;;;;;;21.17;17.23;;;;;;;26.98;60.41;93175.22;5069351;28;20193;-81
2023/08/23 07:23:20;;;;;;;21.83;17.23;;;;;;;26.92;60.55;93188.19;5068081;28;20225;-83
2023/08/23 07:25:45;;;;;;;20.10;18.15;;;;;;;27.16;60.19;93197.63;5069327;28;20871;-82
2023/08/23 07:28:11;;;;;;;18.05;16.35;;;;;;;26.76;61.40;93190.28;5065895;28;20268;-84
2023/08/23 07:30:37;;;;;;;19.10;17.15;;;;;;;26.75;61.52;93194.09;5061843;28;20253;-83
2023/08/23 07:33:03;;;;;;;23.00;17.77;;;;;;;26.80;60.43;93195.69;5068728;28;20225;-84
2023/08/23 07:35:29;;;;;;;19.27;17.48;;;;;;;26.97;61.17;93192.44;5066699;28;20221;-83
2023/08/23 07:37:54;;;;;;;20.02;17.55;;;;;;;27.35;58.62;93187.50;5068349;28;20229;-83
2023/08/23 07:40:19;;;;;;;18.83;16.83;;;;;;;26.98;60.34;93175.22;5069206;28;20193;-83
2023/08/23 07:42:45;;;;;;;20.50;17.05;;;;;;;27.49;57.68;93184.97;5068361;28;20216;-82
2023/08/23 07:45:10;;;;;;;18.80;16.77;;;;;;;27.20;59.31;93185.03;5069538;28;20276;-79
2023/08/23 07:47:36;;;;;;;19.88;17.42;;;;;;;27.29;57.70;93175.59;5068951;28;20224;-80
2023/08/23 07:50:02;;;;;;;18.75;16.10;;;;;;;27.31;57.76;93183.25;5058032;28;20245;-81
2023/08/23 07:52:28;;;;;;;21.98;16.90;;;;;;;27.47;57.47;93181.13;5071636;28;20197;-82
2023/08/23 07:54:53;;;;;;;18.42;16.65;;;;;;;27.22;58.55;93172.81;5066207;28;20255;-82
2023/08/23 07:57:18;;;;;;;22.15;17.75;;;;;;;27.60;58.13;93185.06;5066566;28;20182;-82
2023/08/23 07:59:44;;;;;;;18.25;16.48;;;;;;;27.61;57.64;93178.56;5072719;28;20181;-80
2023/08/23 08:02:09;;;;;;;21.10;16.58;;;;;;;27.80;57.32;93183.72;5071574;28;20193;-79
2023/08/23 08:04:34;;;;;;;18.45;16.67;;;;;;;27.95;56.32;93193.47;5061557;28;20202;-83
2023/08/23 08:07:00;;;;;;;19.88;16.73;;;;;;;28.16;55.43;93189.00;5069809;28;20208;-82
2023/08/23 08:09:25;;;;;;;18.80;16.90;;;;;;;28.18;54.81;93183.25;5072597;28;20206;-82
2023/08/23 08:11:51;;;;;;;23.92;16.90;;;;;;;28.00;54.68;93177.75;5072410;28;20192;-83
2023/08/23 08:14:16;;;;;;;17.90;16.13;;;;;;;28.22;53.89;93182.13;5072310;28;20213;-81
2023/08/23 08:16:42;;;;;;;18.65;16.17;;;;;;;28.39;54.19;93178.00;5072230;28;20162;-82
2023/08/23 08:19:07;;;;;;;18.10;16.13;;;;;;;28.50;53.93;93180.81;5072057;28;20253;-83
2023/08/23 08:21:33;;;;;;;18.77;16.95;;;;;;;28.57;53.91;93184.31;5071491;28;20173;-81
2023/08/23 08:23:58;;;;;;;17.83;16.00;;;;;;;28.57;53.24;93178.94;5071405;28;20221;-83
2023/08/23 08:26:24;;;;;;;18.25;16.48;;;;;;;28.29;53.61;93186.78;5059293;28;20213;-82
2023/08/23 08:28:50;;;;;;;17.27;15.43;;;;;;;28.61;51.95;93185.09;5072181;28;20223;-82
2023/08/23 08:31:15;;;;;;;20.15;15.90;;;;;;;28.40;52.12;93190.31;5072135;28;20182;-82
2023/08/23 08:33:41;;;;;;;17.88;16.15;;;;;;;28.49;52.57;93185.41;5072030;28;20311;-81
2023/08/23 08:36:07;;;;;;;17.83;15.88;;;;;;;28.75;51.39;93187.84;5072452;28;20269;-78
2023/08/23 08:38:32;;;;;;;18.17;15.38;;;;;;;28.62;51.65;93183.94;5061000;28;20221;-82
2023/08/23 08:40:58;;;;;;;18.48;16.23;;;;;;;29.04;50.65;93188.72;5058798;28;20169;-81
2023/08/23 08:43:24;;;;;;;16.08;14.38;;;;;;;29.22;49.35;93184.19;5071392;28;20236;-81
2023/08/23 08:45:49;;;;;;;16.33;14.93;;;;;;;29.23;48.91;93183.06;5082116;28;20204;-82
2023/08/23 08:48:15;;;;;;;16.13;14.57;;;;;;;29.39;47.25;93181.56;5072327;28;20228;-80
2023/08/23 08:50:42;;;;;;;16.55;15.00;;;;;;;29.54;46.79;93188.50;5071710;28;20182;-80
2023/08/23 08:53:13;;;;;;;16.48;15.02;;;;;;;29.54;46.53;93183.13;5071693;28;20231;-81
2023/08/23 08:55:39;;;;;;;16.92;15.45;;;;;;;29.66;46.09;93184.72;5071920;28;20191;-81
2023/08/23 08:58:05;;;;;;;16.77;15.23;;;;;;;29.76;45.43;93181.25;5071618;28;20228;-80
2023/08/23 09:00:32;;;;;;;16.13;14.68;;;;;;;29.76;45.59;93180.50;5066432;28;20185;-81
2023/08/23 09:02:59;;;;;;;16.40;14.85;;;;;;;29.77;45.38;93173.94;5066918;28;20229;-82
2023/08/23 09:05:24;;;;;;;16.00;14.38;;;;;;;29.76;44.47;93167.03;5071254;28;20264;-82
2023/08/23 09:07:51;;;;;;;16.65;14.93;;;;;;;30.08;44.27;93179.34;5071547;28;20233;-80
2023/08/23 09:10:17;;;;;;;18.08;14.50;;;;;;;30.03;44.17;93181.63;5053558;28;20185;-82
2023/08/23 09:12:43;;;;;;;15.38;13.98;;;;;;;30.11;43.76;93164.31;5062645;28;20232;-81
2023/08/23 09:15:08;;;;;;;15.57;13.85;;;;;;;30.12;43.87;93166.63;5059140;28;20179;-82
2023/08/23 09:17:35;;;;;;;15.95;14.32;;;;;;;30.06;43.25;93152.00;5071453;28;20243;-79
2023/08/23 09:20:08;;;;;;;15.40;13.88;;;;;;;29.77;41.53;93126.25;5058678;28;20192;-80
2023/08/23 09:22:34;;;;;;;15.70;14.32;;;;;;;30.06;43.41;93159.31;5063915;28;20228;-82
2023/08/23 09:25:03;;;;;;;16.25;14.63;;;;;;;30.27;42.58;93154.72;5064215;28;20276;-81
2023/08/23 09:27:29;;;;;;;14.82;13.45;;;;;;;30.16;40.78;93153.94;5070731;28;20287;-79
2023/08/23 09:29:56;;;;;;;15.07;13.65;;;;;;;30.15;41.38;93151.63;5051571;28;20221;-81
2023/08/23 09:32:21;;;;;;;14.60;13.32;;;;;;;30.21;42.02;93150.09;5057549;28;20201;-82
2023/08/23 09:34:47;;;;;;;15.50;14.15;;;;;;;30.46;40.96;93142.75;5064771;28;20244;-82
2023/08/23 09:37:12;;;;;;;14.93;13.73;;;;;;;30.59;41.19;93143.84;5070298;28;20246;-81
2023/08/23 09:39:38;;;;;;;14.10;12.93;;;;;;;30.53;41.67;93134.63;5063453;28;20182;-81
2023/08/23 09:42:06;;;;;;;14.40;12.90;;;;;;;30.66;39.21;93139.19;5063670;28;20177;-82
2023/08/23 09:44:40;;;;;;;14.85;13.38;;;;;;;30.59;39.68;93124.97;5064887;28;20238;-81
2023/08/23 09:47:11;;;;;;;14.55;13.25;;;;;;;30.71;39.11;93121.88;5054999;28;20245;-81
2023/08/23 09:49:40;;;;;;;15.02;13.63;;;;;;;30.70;39.02;93123.00;5051230;28;20221;-81
2023/08/23 09:52:06;;;;;;;14.10;12.68;;;;;;;30.70;37.92;93121.09;5052981;28;20192;-79
2023/08/23 09:54:40;;;;;;;13.95;12.65;;;;;;;30.71;38.25;93119.16;5062103;28;20923;-82
2023/08/23 09:57:05;;;;;;;14.20;13.00;;;;;;;30.66;39.21;93111.47;5067391;28;20194;-83
2023/08/23 09:59:32;;;;;;;13.88;12.75;;;;;;;31.02;37.90;93118.28;5061440;28;20232;-81
2023/08/23 10:01:59;;;;;;;13.73;12.52;;;;;;;31.18;38.73;93115.88;5083116;28;20196;-82
2023/08/23 10:04:26;;;;;;;13.50;12.27;;;;;;;31.56;37.75;93098.69;5069762;28;20820;-82
2023/08/23 10:06:52;;;;;;;13.68;12.40;;;;;;;31.72;36.54;93115.13;5070288;28;20181;-79
2023/08/23 10:09:20;;;;;;;14.38;13.15;;;;;;;31.16;37.56;93112.81;5069991;28;20289;-83
2023/08/23 10:11:47;;;;;;;15.00;13.63;;;;;;;31.42;37.42;93108.81;5069978;28;20241;-82
2023/08/23 10:14:13;;;;;;;13.98;12.52;;;;;;;31.36;38.91;93107.69;5070667;28;20229;-82
2023/08/23 10:16:39;;;;;;;13.75;12.55;;;;;;;31.41;37.69;93108.03;5070248;28;20188;-82
2023/08/23 10:19:05;;;;;;;14.48;13.13;;;;;;;31.55;37.86;93102.53;5059851;28;20237;-80
2023/08/23 10:21:31;;;;;;;13.70;12.48;;;;;;;31.51;38.73;93106.44;5066582;28;20178;-81
2023/08/23 10:23:56;;;;;;;14.18;12.88;;;;;;;31.35;38.48;93100.78;5068488;28;20229;-81
2023/08/23 10:26:22;;;;;;;13.57;12.18;;;;;;;31.70;37.97;93103.97;5069291;28;20209;-80
2023/08/23 10:28:49;;;;;;;13.48;12.40;;;;;;;31.92;37.33;93101.88;5069817;28;20255;-82
2023/08/23 10:31:20;;;;;;;13.98;12.70;;;;;;;31.99;36.29;93091.78;5070478;28;20188;-82
2023/08/23 10:33:48;;;;;;;13.88;12.68;;;;;;;32.03;36.35;93099.88;5069796;28;20213;-81
2023/08/23 10:36:21;;;;;;;12.80;11.73;;;;;;;32.03;35.86;93097.94;5069770;28;20241;-81
2023/08/23 10:38:46;;;;;;;13.43;12.07;;;;;;;32.11;36.32;93102.09;5081008;28;20221;-81
2023/08/23 10:41:17;;;;;;;12.07;11.10;;;;;;;32.05;35.91;93111.03;5070536;28;20177;-82
2023/08/23 10:43:45;;;;;;;13.00;11.70;;;;;;;32.01;34.60;93094.84;5069453;28;20271;-81
2023/08/23 10:46:10;;;;;;;12.35;11.18;;;;;;;31.82;33.24;93094.59;5069638;28;20216;-83
2023/08/23 10:48:36;;;;;;;12.90;11.68;;;;;;;32.09;33.60;93088.22;5069710;28;20855;-79
2023/08/23 10:51:01;;;;;;;12.48;11.27;;;;;;;31.34;34.65;93074.94;5061331;28;20181;-82
2023/08/23 10:53:26;;;;;;;12.55;11.35;;;;;;;32.19;33.81;93081.94;5069254;28;20247;-82
2023/08/23 10:55:52;;;;;;;12.48;11.38;;;;;;;32.19;34.12;93084.63;5069532;28;20320;-81
2023/08/23 10:58:17;;;;;;;13.95;12.57;;;;;;;31.80;33.58;93084.19;5069295;28;21078;-81
2023/08/23 11:00:45;;;;;;;13.43;11.95;;;;;;;31.51;35.73;93085.59;5050271;28;20194;-82
2023/08/23 11:03:12;;;;;;;12.57;11.60;;;;;;;31.54;35.16;93084.81;5062016;28;20987;-83
2023/08/23 11:05:38;;;;;;;16.92;12.13;;;;;;;32.22;34.65;93081.13;5063099;28;20205;-83
2023/08/23 11:08:04;;;;;;;11.95;10.98;;;;;;;32.68;33.24;93073.31;5062211;28;20281;-82
2023/08/23 11:10:30;;;;;;;13.93;12.07;;;;;;;33.00;32.21;93089.16;5069666;28;20201;-80
2023/08/23 11:12:55;;;;;;;12.73;11.63;;;;;;;32.48;32.65;93064.28;5056047;28;20234;-82
2023/08/23 11:15:21;;;;;;;13.48;11.90;;;;;;;32.98;31.96;93077.97;5069305;28;20189;-81